Latest Weather Observations for Jabiru

IDD60801

Issued at 10:31 am CST Sunday 24 September 2017 (issued every 30 minutes, with the page automatically refreshed every 10 minutes)

About weather observations | Map of weather stations | Latest weather observations for NT | Other Formats
Station Details ID: 014198 Name: JABIRU AIRPORT Lat: -12.66 Lon: 132.89 Height: 26.5 m
Data from the previous 72 hours. | See also: Recent months at Jabiru
Date/Time
CST
Temp
°C
App
Temp
°C
Dew
Point
°C
Rel
Hum
%
Delta-T
°C
Wind Press
QNH
hPa
Press
MSL
hPa
Rain since
9am
mm
Dir  Spd
km/h
Gust
km/h
Spd
kts
Gust
kts
24/10:30am 31.7 34.2 20.3 50 7.6 ENE 7 13 4 7 1012.7 1012.5 0.0
24/10:00am 29.5 32.4 20.6 58 5.9 NNW 6 11 3 6 1013.1 1012.9 0.0
24/09:30am 28.8 31.3 21.1 63 5.1 NNW 9 13 5 7 1013.4 1013.2 0.0
24/09:00am 28.1 30.8 21.4 67 4.5 NW 9 13 5 7 1013.7 1013.5 0.0
24/08:30am 27.1 30.4 21.8 73 3.5 WSW 7 11 4 6 1013.6 1013.4 0.0
24/08:00am 26.1 29.3 21.7 77 2.9 SSW 7 11 4 6 1013.3 1013.1 0.0
24/07:30am 24.9 28.1 21.6 82 2.2 SSW 7 11 4 6 1013.0 1012.8 0.0
24/07:00am 23.8 26.6 20.9 84 1.9 SSW 7 9 4 5 1012.7 1012.5 0.0
24/06:30am 23.7 26.5 20.8 84 1.9 S 7 7 4 4 1012.4 1012.2 0.0
24/06:00am 23.6 26.3 20.7 84 1.9 SSW 7 9 4 5 1012.4 1012.2 0.0
24/05:30am 23.9 26.7 20.8 83 2.0 SSW 7 9 4 5 1012.4 1012.2 0.0
24/05:00am 24.1 27.0 21.0 83 2.0 SSW 7 9 4 5 1012.5 1012.3 0.0
24/04:30am 24.5 27.5 21.2 82 2.2 SSW 7 9 4 5 1012.3 1012.1 0.0
24/04:00am 24.7 27.7 21.2 81 2.3 SSW 7 9 4 5 1012.3 1012.1 0.0
24/03:30am 24.9 28.1 21.2 80 2.4 WSW 6 7 3 4 1012.2 1012.0 0.0
24/03:00am 25.4 28.5 21.5 79 2.6 WNW 7 9 4 5 1011.9 1011.7 0.0
24/02:30am 25.1 28.2 21.0 78 2.7 W 6 7 3 4 1012.1 1011.9 0.0
24/02:00am 25.6 28.8 21.3 77 2.8 NW 6 7 3 4 1012.3 1012.1 0.0
24/01:30am 25.7 28.5 20.9 75 3.2 NNW 7 9 4 5 1012.4 1012.2 0.0
24/01:00am 26.2 29.0 20.8 72 3.6 NW 7 9 4 5 1012.5 1012.3 0.0
24/12:30am 26.3 28.8 19.9 68 4.2 NNW 6 7 3 4 1012.7 1012.5 0.0
24/12:00am 26.1 28.4 19.5 67 4.3 NE 6 9 3 5 1012.7 1012.5 0.0
 
Date/Time
CST
Temp
°C
App
Temp
°C
Dew
Point
°C
Rel
Hum
%
Delta-T
°C
Wind Press
QNH
hPa
Press
MSL
hPa
Rain since
9am
mm
Dir  Spd
km/h
Gust
km/h
Spd
kts
Gust
kts
23/11:30pm 26.6 28.8 19.7 66 4.5 N 7 11 4 6 1012.9 1012.7 0.0
23/11:00pm 27.0 29.1 19.4 63 4.9 N 7 11 4 6 1012.9 1012.7 0.0
23/10:30pm 27.5 29.4 19.0 59 5.5 N 7 11 4 6 1012.8 1012.6 0.0
23/10:00pm 27.8 29.0 18.2 56 6.1 NNW 9 13 5 7 1012.5 1012.3 0.0
23/09:30pm 28.6 29.4 18.1 53 6.7 N 11 17 6 9 1012.0 1011.8 0.0
23/09:00pm 28.9 29.3 18.1 52 6.9 N 13 19 7 10 1011.7 1011.5 0.0
23/08:30pm 29.4 28.9 17.9 50 7.3 N 17 26 9 14 1011.3 1011.1 0.0
23/08:00pm 30.5 29.4 17.2 44 8.4 N 19 28 10 15 1010.8 1010.6 0.0
23/07:30pm 31.9 30.2 13.6 32 11.1 N 15 24 8 13 1010.3 1010.1 0.0
23/07:00pm 32.6 30.8 13.3 31 11.6 N 15 22 8 12 1009.8 1009.6 0.0
23/06:30pm 33.4 30.7 12.9 28 12.3 N 19 24 10 13 1009.3 1009.1 0.0
23/06:00pm 34.5 31.9 13.9 29 12.6 N 20 30 11 16 1009.1 1008.9 0.0
23/05:30pm 36.4 35.5 12.6 24 14.4 NNE 9 13 5 7 1008.8 1008.6 0.0
23/05:00pm 36.7 35.3 12.2 23 14.8 E 11 17 6 9 1008.5 1008.3 0.0
23/04:30pm 38.2 36.0 12.0 21 15.8 NE 15 32 8 17 1008.4 1008.2 0.0
23/04:00pm 37.3 35.5 12.0 22 15.2 ENE 13 28 7 15 1008.5 1008.3 0.0
23/03:30pm 37.6 35.1 12.3 22 15.3 E 17 33 9 18 1008.6 1008.4 0.0
23/03:00pm 37.9 37.0 12.5 22 15.5 ESE 9 17 5 9 1009.0 1008.8 0.0
23/02:30pm 37.3 34.7 12.0 22 15.2 ESE 17 28 9 15 1009.6 1009.4 0.0
23/02:00pm 37.1 34.1 11.8 22 15.2 ENE 19 30 10 16 1009.9 1009.7 0.0
23/01:30pm 36.4 34.6 14.4 27 13.7 NE 17 28 9 15 1010.4 1010.2 0.0
23/01:00pm 35.6 34.9 15.3 29 12.7 E 13 24 7 13 1011.0 1010.8 0.0
23/12:30pm 35.1 34.6 15.9 31 12.1 E 13 20 7 11 1011.5 1011.3 0.0
23/12:00pm 34.8 33.5 15.7 32 12.0 ENE 17 28 9 15 1012.3 1012.1 0.0
23/11:30am 34.1 32.3 16.0 34 11.4 E 20 28 11 15 1013.1 1012.9 0.0
23/11:00am 32.5 33.4 18.3 43 9.2 ESE 11 19 6 10 1013.4 1013.2 0.0
23/10:30am 31.6 33.1 18.9 47 8.3 ESE 9 17 5 9 1014.1 1013.9 0.0
23/10:00am 30.8 32.7 19.8 52 7.2 ESE 9 13 5 7 1014.3 1014.1 0.0
23/09:30am 29.6 32.6 21.3 61 5.6 ESE 7 15 4 8 1014.5 1014.3 0.0
23/09:00am 27.9 31.6 22.2 71 3.8 NNW 6 11 3 6 1014.5 1014.3 0.0
23/08:30am 27.3 30.9 22.3 74 3.4 SW 7 9 4 5 1014.5 1014.3 0.0
23/08:00am 26.3 30.0 22.6 80 2.5 SW 7 11 4 6 1014.3 1014.1 0.0
23/07:30am 25.2 28.7 22.1 83 2.1 SSW 7 11 4 6 1013.9 1013.7 0.0
23/07:00am 24.2 27.8 22.3 89 1.3 SSW 7 9 4 5 1013.7 1013.5 0.0
23/06:30am 24.0 27.6 22.1 89 1.3 SSW 6 9 3 5 1013.4 1013.2 0.0
23/06:00am 24.1 27.5 22.0 88 1.4 SSW 7 9 4 5 1013.1 1012.9 0.0
23/05:30am 24.4 27.9 22.1 87 1.5 SW 7 7 4 4 1012.9 1012.7 0.0
23/05:00am 24.6 28.2 22.3 87 1.5 SSW 7 7 4 4 1012.7 1012.5 0.0
23/04:30am 24.6 28.1 22.1 86 1.7 SSW 7 11 4 6 1012.5 1012.3 0.0
23/04:00am 25.0 29.4 22.1 84 1.9 SW 2 7 1 4 1012.5 1012.3 0.0
23/03:30am 25.1 28.8 22.2 84 1.9 SW 6 7 3 4 1012.4 1012.2 0.0
23/03:00am 25.1 28.5 22.0 83 2.1 SW 7 9 4 5 1012.6 1012.4 0.0
23/02:30am 25.5 28.8 21.8 80 2.5 W 7 9 4 5 1012.7 1012.5 0.0
23/02:00am 25.7 29.2 21.8 79 2.6 NW 6 9 3 5 1012.8 1012.6 0.0
23/01:30am 26.0 29.4 21.7 77 2.9 WNW 6 7 3 4 1012.8 1012.6 0.0
23/01:00am 26.3 29.7 21.7 76 3.1 N 6 9 3 5 1012.7 1012.5 0.0
23/12:30am 26.1 29.3 21.7 77 2.9 N 7 9 4 5 1012.9 1012.7 0.0
23/12:00am 26.5 29.6 21.5 74 3.3 NNW 7 7 4 4 1013.2 1013.0 0.0
 
Date/Time
CST
Temp
°C
App
Temp
°C
Dew
Point
°C
Rel
Hum
%
Delta-T
°C
Wind Press
QNH
hPa
Press
MSL
hPa
Rain since
9am
mm
Dir  Spd
km/h
Gust
km/h
Spd
kts
Gust
kts
22/11:30pm 27.2 30.0 21.5 71 3.8 N 9 13 5 7 1013.4 1013.2 0.0
22/11:00pm 27.3 29.9 20.4 66 4.5 N 7 9 4 5 1013.2 1013.0 0.0
22/10:30pm 27.6 29.7 20.2 64 4.9 N 9 9 5 5 1013.1 1012.9 0.0
22/10:00pm 28.0 29.5 19.8 61 5.4 N 11 15 6 8 1012.8 1012.6 0.0
22/09:30pm 28.6 30.2 19.2 56 6.1 N 9 15 5 8 1012.6 1012.4 0.0
22/09:00pm 29.1 29.9 19.1 54 6.5 N 13 19 7 10 1012.1 1011.9 0.0
22/08:30pm 29.8 30.7 19.2 53 6.9 N 13 19 7 10 1011.6 1011.4 0.0
22/08:00pm 31.4 31.5 18.4 46 8.4 N 15 20 8 11 1010.9 1010.7 0.0
22/07:30pm 32.1 32.2 18.3 44 8.9 N 15 24 8 13 1010.3 1010.1 0.0
22/07:00pm 32.8 31.7 17.8 40 9.7 N 20 30 11 16 1009.8 1009.6 0.0
22/06:30pm 34.9 33.8 13.1 27 13.2 NNE 11 15 6 8 1009.3 1009.1 0.0
22/06:00pm 36.1 34.2 11.7 23 14.6 NE 13 19 7 10 1009.0 1008.8 0.0
22/05:30pm 37.0 35.3 12.4 23 14.9 NNE 13 20 7 11 1008.8 1008.6 0.0
22/05:00pm 37.0 34.5 11.1 21 15.4 NNE 15 22 8 12 1008.7 1008.5 0.0
22/04:30pm 37.3 35.8 12.0 22 15.2 NNE 11 15 6 8 1008.7 1008.5 0.0
22/04:00pm 38.0 35.6 12.6 22 15.5 NNE 17 22 9 12 1008.8 1008.6 0.0
22/03:30pm 37.4 34.8 12.1 22 15.3 ENE 17 26 9 14 1009.0 1008.8 0.0
22/03:00pm 37.8 35.9 11.7 21 15.7 NNE 13 20 7 11 1009.2 1009.0 0.0
22/02:30pm 37.3 34.7 12.0 22 15.2 ENE 17 28 9 15 1009.6 1009.4 0.0
22/02:00pm 37.5 36.0 14.1 24 14.5 ENE 15 39 8 21 1010.0 1009.8 0.0
22/01:30pm 36.4 35.7 13.2 25 14.2 E 9 17 5 9 1010.5 1010.3 0.0
22/01:00pm 36.2 35.1 14.2 26 13.6 E 13 26 7 14 1011.0 1010.8 0.0
22/12:30pm 35.4 33.7 14.6 28 12.9 ENE 17 26 9 14 1011.8 1011.6 0.0
22/12:00pm 34.9 34.3 14.7 29 12.5 E 11 22 6 12 1012.3 1012.1 0.0
22/11:30am 33.7 32.6 15.2 33 11.5 E 15 24 8 13 1012.9 1012.7 0.0
22/11:00am 32.8 31.9 15.8 36 10.6 NE 15 24 8 13 1013.3 1013.1 0.0
22/10:30am 31.6 32.1 17.5 43 9.0 NNE 11 19 6 10 1013.6 1013.4 0.0
22/10:00am 30.6 31.5 18.3 47 7.9 E 11 17 6 9 1013.9 1013.7 0.0
22/09:30am 29.6 30.5 19.3 54 6.7 ESE 13 22 7 12 1014.2 1014.0 0.0
22/09:00am 28.7 30.8 20.2 60 5.6 ESE 9 17 5 9 1014.3 1014.1 0.2
22/08:30am 27.2 30.3 21.5 71 3.8 S 7 9 4 5 1014.0 1013.8 0.2
22/08:00am 25.9 29.1 21.3 76 3.0 SW 6 9 3 5 1013.7 1013.5 0.2
22/07:30am 24.7 29.0 21.2 81 2.3 CALM 0 4 0 2 1013.6 1013.4 0.2
22/07:00am 23.8 28.2 21.3 86 1.6 CALM 0 6 0 3 1013.3 1013.1 0.2
22/06:30am 23.4 26.3 21.1 87 1.5 SSW 7 9 4 5 1012.9 1012.7 0.2
22/06:00am 23.5 26.7 21.2 87 1.5 SSW 6 7 3 4 1012.5 1012.3 0.2
22/05:30am 23.6 26.5 21.1 86 1.6 SW 7 9 4 5 1012.2 1012.0 0.2
22/05:00am 24.0 26.8 20.9 83 2.0 SSW 7 9 4 5 1012.0 1011.8 0.2
22/04:30am 24.1 27.0 21.0 83 2.0 S 7 9 4 5 1011.8 1011.6 0.2
22/04:00am 24.2 27.1 21.1 83 2.0 SSW 7 7 4 4 1011.6 1011.4 0.2
22/03:30am 24.5 27.7 21.2 82 2.2 SSW 6 7 3 4 1011.7 1011.5 0.2
22/03:00am 24.5 27.0 21.0 81 2.3 SW 9 11 5 6 1011.7 1011.5 0.2
22/02:30am 25.0 28.0 20.9 78 2.7 WSW 6 7 3 4 1011.9 1011.7 0.2
22/02:00am 25.7 28.5 20.9 75 3.2 WNW 7 9 4 5 1012.1 1011.9 0.2
22/01:30am 26.0 30.0 20.6 72 3.5 CALM 0 0 0 0 1012.2 1012.0 0.2
22/01:00am 26.9 30.0 21.0 70 3.9 NNE 6 6 3 3 1012.3 1012.1 0.2
22/12:30am 26.9 29.8 20.7 69 4.1 NNE 6 9 3 5 1012.1 1011.9 0.2
22/12:00am 27.1 29.4 20.7 68 4.2 ENE 9 11 5 6 1011.9 1011.7 0.2
 
Date/Time
CST
Temp
°C
App
Temp
°C
Dew
Point
°C
Rel
Hum
%
Delta-T
°C
Wind Press
QNH
hPa
Press
MSL
hPa
Rain since
9am
mm
Dir  Spd
km/h
Gust
km/h
Spd
kts
Gust
kts
21/11:30pm 27.4 29.1 20.2 65 4.7 NE 11 17 6 9 1012.0 1011.8 0.2
21/11:00pm 27.8 28.6 19.8 61 5.2 NE 15 24 8 13 1011.9 1011.7 0.2
21/10:30pm 28.2 28.2 19.7 60 5.5 NE 19 26 10 14 1011.8 1011.6 0.2
21/10:00pm 28.6 28.7 19.2 56 6.1 NE 17 26 9 14 1011.6 1011.4 0.2
21/09:30pm 28.3 30.0 18.4 55 6.3 NNE 7 13 4 7 1011.3 1011.1 0.2
21/09:00pm 28.9 29.1 17.7 50 7.1 N 13 17 7 9 1011.0 1010.8 0.2
21/08:30pm 29.7 29.8 17.5 48 7.8 N 13 20 7 11 1010.3 1010.1 0.2
21/08:00pm 30.5 30.3 17.6 46 8.2 N 15 22 8 12 1009.9 1009.7 0.2
21/07:30pm 31.2 30.7 17.9 45 8.5 N 17 22 9 12 1009.4 1009.2 0.2
21/07:00pm 32.2 31.6 18.4 44 8.9 N 19 28 10 15 1009.0 1008.8 0.2
21/06:30pm 34.5 34.6 14.4 30 12.4 NNE 7 13 4 7 1008.4 1008.2 0.2
21/06:00pm 35.5 34.6 13.6 26 13.4 ENE 11 15 6 8 1008.3 1008.1 0.2
21/05:30pm 35.6 34.7 13.7 27 13.4 ENE 11 17 6 9 1008.2 1008.0 0.2
21/05:00pm 35.8 35.1 13.3 26 13.7 E 9 13 5 7 1008.1 1007.9 0.2
21/04:30pm 35.9 34.3 14.0 27 13.5 E 15 24 8 13 1008.2 1008.0 0.2
21/04:00pm 37.6 37.0 13.6 24 14.8 NE 9 20 5 11 1008.3 1008.1 0.2
21/03:30pm 36.6 35.0 14.0 26 14.0 E 15 20 8 11 1008.5 1008.3 0.2
21/03:00pm 36.4 34.6 13.2 25 14.2 ESE 15 26 8 14 1008.7 1008.5 0.2
21/02:30pm 37.1 36.6 13.8 25 14.4 SE 9 19 5 10 1009.0 1008.8 0.2
21/02:00pm 37.3 35.3 14.0 25 14.4 ESE 17 30 9 16 1009.5 1009.3 0.2
21/01:30pm 35.6 35.3 14.3 28 13.2 E 9 15 5 8 1009.9 1009.7 0.2
21/01:00pm 35.2 34.0 13.9 27 13.1 SE 13 24 7 13 1010.5 1010.3 0.2
21/12:30pm 35.1 32.9 14.9 29 12.6 E 20 32 11 17 1011.2 1011.0 0.2
21/12:00pm 34.8 33.5 15.7 32 12.0 ENE 17 28 9 15 1011.8 1011.6 0.2
21/11:30am 33.5 32.6 15.9 34 11.1 ESE 15 32 8 17 1012.4 1012.2 0.2
21/11:00am 33.2 31.8 16.5 36 10.6 ESE 19 26 10 14 1012.8 1012.6 0.2

Other Formats:

Comma delimited format used in spreadsheet applications
http://www.bom.gov.au/fwo/IDD60801/IDD60801.94137.axf

JavaScript Object Notation format (JSON) in row-major order
http://www.bom.gov.au/fwo/IDD60801/IDD60801.94137.json